Time;durP1;ratioP1;P1;durP2;ratioP2;P2;SDS_P1;SDS_P2;PMS_P1;PMS_P2;Temp;Humidity;BMP_temperature;BMP_pressure;BME280_temperature;BME280_humidity;BME280_pressure;Samples;Min_cycle;Max_cycle;Signal;HPM_P1;HPM_P2
2023/10/01 00:01:45;;;;;;;;;;;16.40;79.50;;;;;;4957933;28;20000;-79
2023/10/01 00:04:12;;;;;;;;;;;16.40;79.50;;;;;;4956383;28;20112;-79
2023/10/01 00:06:39;;;;;;;;;;;16.40;79.60;;;;;;4965804;28;19977;-79
2023/10/01 00:09:06;;;;;;;;;;;16.40;79.60;;;;;;4957950;28;20032;-78
2023/10/01 00:11:34;;;;;;;;;;;16.30;79.60;;;;;;4959201;28;19988;-79
2023/10/01 00:14:01;;;;;;;;;;;16.30;79.60;;;;;;4961092;28;20001;-79
2023/10/01 00:16:29;;;;;;;;;;;16.30;79.60;;;;;;4956930;28;20689;-79
2023/10/01 00:18:56;;;;;;;;;;;16.30;79.70;;;;;;4959212;28;20103;-79
2023/10/01 00:21:23;;;;;;;;;;;16.20;79.70;;;;;;4961397;28;20012;-80
2023/10/01 00:23:51;;;;;;;;;;;16.20;79.80;;;;;;4955430;28;19989;-78
2023/10/01 00:26:18;;;;;;;;;;;16.20;79.80;;;;;;4967900;28;20005;-79
2023/10/01 00:28:45;;;;;;;;;;;16.20;79.80;;;;;;4962446;28;19993;-79
2023/10/01 00:31:12;;;;;;;;;;;16.20;79.80;;;;;;4953298;28;20004;-79
2023/10/01 00:33:41;;;;;;;;;;;16.10;79.80;;;;;;4961334;28;20039;-80
2023/10/01 00:36:08;;;;;;;;;;;16.10;79.80;;;;;;4963822;28;20005;-79
2023/10/01 00:38:35;;;;;;;;;;;16.10;79.90;;;;;;4968078;28;19997;-79
2023/10/01 00:41:01;;;;;;;;;;;16.10;79.90;;;;;;4961538;28;20387;-78
2023/10/01 00:43:31;;;;;;;;;;;16.10;79.90;;;;;;4964213;28;19977;-78
2023/10/01 00:45:57;;;;;;;;;;;16.10;80.00;;;;;;4954815;28;20005;-78
2023/10/01 00:48:25;;;;;;;;;;;16.00;79.90;;;;;;4956802;28;19993;-79
2023/10/01 00:50:54;;;;;;;;;;;16.00;79.90;;;;;;4956879;28;19988;-78
2023/10/01 00:53:21;;;;;;;;;;;16.00;80.00;;;;;;4960905;28;20367;-78
2023/10/01 00:55:48;;;;;;;;;;;16.00;80.00;;;;;;4938394;28;20048;-79
2023/10/01 00:58:17;;;;;;;;;;;15.90;80.00;;;;;;4958433;28;20040;-79
2023/10/01 01:00:45;;;;;;;;;;;15.90;80.00;;;;;;4957351;28;20021;-79
2023/10/01 01:03:21;;;;;;;;;;;15.90;80.00;;;;;;4959779;28;20210;-80
2023/10/01 01:06:04;;;;;;;;;;;15.90;80.20;;;;;;4961863;28;20083;-77
2023/10/01 01:08:34;;;;;;;;;;;15.80;80.10;;;;;;4957709;28;19993;-78
2023/10/01 01:11:01;;;;;;;;;;;15.80;80.10;;;;;;4958431;28;20469;-79
2023/10/01 01:13:28;;;;;;;;;;;15.80;80.20;;;;;;4966957;28;19988;-77
2023/10/01 01:15:57;;;;;;;;;;;15.80;80.20;;;;;;4971671;28;20011;-79
2023/10/01 01:18:26;;;;;;;;;;;15.80;81.00;;;;;;4963559;28;20004;-78
2023/10/01 01:20:58;;;;;;;;;;;15.80;80.30;;;;;;4960297;28;20352;-78
2023/10/01 01:23:26;;;;;;;;;;;15.70;80.30;;;;;;4963731;28;20074;-77
2023/10/01 01:25:53;;;;;;;;;;;15.70;80.40;;;;;;4961533;28;19981;-77
2023/10/01 01:28:24;;;;;;;;;;;15.70;80.40;;;;;;4963191;28;20427;-78
2023/10/01 01:30:52;;;;;;;;;;;15.70;80.50;;;;;;4954544;28;20529;-78
2023/10/01 01:33:21;;;;;;;;;;;15.60;80.50;;;;;;4960301;28;20020;-78
2023/10/01 01:35:49;;;;;;;;;;;15.60;80.50;;;;;;4975867;28;20011;-78
2023/10/01 01:38:16;;;;;;;;;;;15.60;80.60;;;;;;4966511;28;20000;-78
2023/10/01 01:40:47;;;;;;;;;;;15.60;80.70;;;;;;4957971;28;20243;-77
2023/10/01 01:43:21;;;;;;;;;;;15.60;80.70;;;;;;4957373;28;19984;-77
2023/10/01 01:45:48;;;;;;;;;;;15.60;80.70;;;;;;4957962;28;20003;-77
2023/10/01 01:48:30;;;;;;;;;;;15.60;80.80;;;;;;4961779;28;20760;-78
2023/10/01 01:50:58;;;;;;;;;;;15.50;80.80;;;;;;4964876;28;19981;-78
2023/10/01 01:53:26;;;;;;;;;;;15.50;80.90;;;;;;4957166;28;21024;-77
2023/10/01 01:55:56;;;;;;;;;;;15.50;80.90;;;;;;4957506;28;20741;-77
2023/10/01 01:58:24;;;;;;;;;;;15.50;80.90;;;;;;4962111;28;19993;-78
2023/10/01 02:01:08;;;;;;;;;;;15.40;80.90;;;;;;4960826;28;20104;-77
2023/10/01 02:03:37;;;;;;;;;;;15.50;81.00;;;;;;4957384;28;20071;-77
2023/10/01 02:06:05;;;;;;;;;;;15.40;81.00;;;;;;4958731;28;20398;-78
2023/10/01 02:08:44;;;;;;;;;;;15.40;81.10;;;;;;4957006;28;20024;-78
2023/10/01 02:11:13;;;;;;;;;;;15.40;81.10;;;;;;4963140;28;19984;-78
2023/10/01 02:13:41;;;;;;;;;;;15.30;81.10;;;;;;4962239;28;19988;-78
2023/10/01 02:16:34;;;;;;;;;;;15.30;81.10;;;;;;4959179;28;19997;-78
2023/10/01 02:19:14;;;;;;;;;;;15.30;81.10;;;;;;4971867;28;19993;-77
2023/10/01 02:21:48;;;;;;;;;;;15.30;81.10;;;;;;4964436;28;19977;-78
2023/10/01 02:24:19;;;;;;;;;;;15.20;81.10;;;;;;4966672;28;19989;-77
2023/10/01 02:26:47;;;;;;;;;;;15.20;81.10;;;;;;4963775;28;20459;-78
2023/10/01 02:29:16;;;;;;;;;;;15.30;81.20;;;;;;4964700;28;19993;-79
2023/10/01 02:31:48;;;;;;;;;;;15.20;81.20;;;;;;4963352;28;20050;-78
2023/10/01 02:34:15;;;;;;;;;;;15.20;81.20;;;;;;4962116;28;19969;-77
2023/10/01 02:36:42;;;;;;;;;;;15.20;81.30;;;;;;4961147;28;19997;-77
2023/10/01 02:39:19;;;;;;;;;;;15.20;81.30;;;;;;4963014;28;20445;-78
2023/10/01 02:42:09;;;;;;;;;;;15.10;81.30;;;;;;4965185;28;20042;-77
2023/10/01 02:44:35;;;;;;;;;;;15.10;81.30;;;;;;4960322;28;20390;-76
2023/10/01 02:47:03;;;;;;;;;;;15.10;81.40;;;;;;4963333;28;19999;-77
2023/10/01 02:49:32;;;;;;;;;;;15.10;81.50;;;;;;4964772;28;20007;-77
2023/10/01 02:51:59;;;;;;;;;;;15.10;81.50;;;;;;4962789;28;20028;-77
2023/10/01 02:54:28;;;;;;;;;;;15.10;81.50;;;;;;4971748;28;19988;-77
2023/10/01 02:57:12;;;;;;;;;;;15.10;81.50;;;;;;4962226;28;20070;-77
2023/10/01 03:00:09;;;;;;;;;;;15.10;81.50;;;;;;4969025;28;19985;-77
2023/10/01 03:02:25;;;;;;;;;;;15.00;81.40;;;;;;4959060;28;20004;-77
2023/10/01 03:04:51;;;;;;;;;;;15.00;81.50;;;;;;4963438;28;20473;-77
2023/10/01 03:07:18;;;;;;;;;;;15.00;81.40;;;;;;4968668;28;19987;-77
2023/10/01 03:09:48;;;;;;;;;;;15.00;81.60;;;;;;4965664;28;20009;-78
2023/10/01 03:12:34;;;;;;;;;;;15.00;81.60;;;;;;4961222;28;20016;-77
2023/10/01 03:15:00;;;;;;;;;;;14.90;81.60;;;;;;4961935;28;20463;-76
2023/10/01 03:17:28;;;;;;;;;;;14.90;81.60;;;;;;4963356;28;20664;-78
2023/10/01 03:19:54;;;;;;;;;;;14.90;81.60;;;;;;4961230;28;20519;-79
2023/10/01 03:22:23;;;;;;;;;;;14.80;81.70;;;;;;4960478;28;19977;-77
2023/10/01 03:24:51;;;;;;;;;;;14.90;81.90;;;;;;4960069;28;19981;-77
2023/10/01 03:27:25;;;;;;;;;;;14.80;81.90;;;;;;4962016;28;19999;-77
2023/10/01 03:30:00;;;;;;;;;;;14.80;81.90;;;;;;4959312;28;20434;-78
2023/10/01 03:32:27;;;;;;;;;;;14.80;81.90;;;;;;4961151;28;20419;-76
2023/10/01 03:34:54;;;;;;;;;;;14.80;82.00;;;;;;4959353;28;20453;-77
2023/10/01 03:37:27;;;;;;;;;;;14.80;82.00;;;;;;4965732;28;19991;-78
2023/10/01 03:40:03;;;;;;;;;;;14.80;82.10;;;;;;4963763;28;20029;-77
2023/10/01 03:42:33;;;;;;;;;;;14.70;82.10;;;;;;4962428;28;19977;-78
2023/10/01 03:45:18;;;;;;;;;;;14.70;82.20;;;;;;4958696;28;19981;-78
2023/10/01 03:47:50;;;;;;;;;;;14.70;82.20;;;;;;4958317;28;20491;-78
2023/10/01 03:50:20;;;;;;;;;;;14.70;82.20;;;;;;4959297;28;19977;-77
2023/10/01 03:52:52;;;;;;;;;;;14.60;82.20;;;;;;4958878;28;19981;-79
2023/10/01 03:55:27;;;;;;;;;;;14.60;82.20;;;;;;4964854;28;20080;-78
2023/10/01 03:58:05;;;;;;;;;;;14.60;82.30;;;;;;4962799;28;20004;-78
2023/10/01 04:00:34;;;;;;;;;;;14.60;82.30;;;;;;4962176;28;20000;-77
2023/10/01 04:03:02;;;;;;;;;;;14.60;82.40;;;;;;4962507;28;19980;-77
2023/10/01 04:05:33;;;;;;;;;;;14.60;82.40;;;;;;4966845;28;19989;-78
2023/10/01 04:08:06;;;;;;;;;;;14.60;82.50;;;;;;4960760;28;20003;-78
2023/10/01 04:10:34;;;;;;;;;;;14.50;82.40;;;;;;4960137;28;20466;-78
2023/10/01 04:13:12;;;;;;;;;;;14.50;82.40;;;;;;4964451;28;19981;-77
2023/10/01 04:15:45;;;;;;;;;;;14.50;82.50;;;;;;4961272;28;20084;-78
2023/10/01 04:18:21;;;;;;;;;;;14.50;82.50;;;;;;4960997;28;19989;-78
2023/10/01 04:20:49;;;;;;;;;;;14.50;82.50;;;;;;4961668;28;19980;-78
2023/10/01 04:23:23;;;;;;;;;;;14.40;82.50;;;;;;4964692;28;20035;-78
2023/10/01 04:25:51;;;;;;;;;;;14.40;82.60;;;;;;4959817;28;20038;-77
2023/10/01 04:28:19;;;;;;;;;;;14.40;82.70;;;;;;4962026;28;19988;-79
2023/10/01 04:30:51;;;;;;;;;;;14.40;82.70;;;;;;4962304;28;20004;-78
2023/10/01 04:33:18;;;;;;;;;;;14.40;82.70;;;;;;4960819;28;20064;-77
2023/10/01 04:35:51;;;;;;;;;;;14.40;82.70;;;;;;4958547;28;20632;-77
2023/10/01 04:38:19;;;;;;;;;;;14.40;82.70;;;;;;4959323;28;20424;-78
2023/10/01 04:40:46;;;;;;;;;;;14.30;82.70;;;;;;4959496;28;20064;-76
2023/10/01 04:43:16;;;;;;;;;;;14.30;82.70;;;;;;4965337;28;20363;-77
2023/10/01 04:45:44;;;;;;;;;;;14.30;82.60;;;;;;4965532;28;20035;-77
2023/10/01 04:48:15;;;;;;;;;;;14.30;82.60;;;;;;4958701;28;19997;-77
2023/10/01 04:50:42;;;;;;;;;;;14.30;82.60;;;;;;4956149;28;19981;-77
2023/10/01 04:53:13;;;;;;;;;;;14.30;82.60;;;;;;4960386;28;20363;-77
2023/10/01 04:55:42;;;;;;;;;;;14.30;82.60;;;;;;4956987;28;19989;-77
2023/10/01 04:58:12;;;;;;;;;;;14.20;82.60;;;;;;4960289;28;19997;-76
2023/10/01 05:00:39;;;;;;;;;;;14.30;82.60;;;;;;4958744;28;19993;-77
2023/10/01 05:03:10;;;;;;;;;;;14.30;82.60;;;;;;4966454;28;19981;-77
2023/10/01 05:05:37;;;;;;;;;;;14.20;82.60;;;;;;4958795;28;20452;-76
2023/10/01 05:08:04;;;;;;;;;;;14.20;82.60;;;;;;4960821;28;20379;-77
2023/10/01 05:10:50;;;;;;;;;;;14.20;82.60;;;;;;4963218;28;20061;-77
2023/10/01 05:13:19;;;;;;;;;;;14.20;82.70;;;;;;4958418;28;20462;-77
2023/10/01 05:15:49;;;;;;;;;;;14.20;82.70;;;;;;4961200;28;20752;-76
2023/10/01 05:18:19;;;;;;;;;;;14.10;82.70;;;;;;4955380;28;20032;-78
2023/10/01 05:20:48;;;;;;;;;;;14.10;82.70;;;;;;4965352;28;20031;-78
2023/10/01 05:23:15;;;;;;;;;;;14.10;82.70;;;;;;4956154;28;19976;-78
2023/10/01 05:25:45;;;;;;;;;;;14.10;82.70;;;;;;4959418;28;20048;-78
2023/10/01 05:28:23;;;;;;;;;;;14.10;82.80;;;;;;4957727;28;20008;-77
2023/10/01 05:30:57;;;;;;;;;;;14.10;82.80;;;;;;4959784;28;20001;-77
2023/10/01 05:33:27;;;;;;;;;;;14.00;82.70;;;;;;4957768;28;19976;-77
2023/10/01 05:35:57;;;;;;;;;;;14.10;82.90;;;;;;4967096;28;20115;-76
2023/10/01 05:38:26;;;;;;;;;;;14.00;82.80;;;;;;4964260;28;19997;-77
2023/10/01 05:40:55;;;;;;;;;;;14.00;82.90;;;;;;4969154;28;20071;-78
2023/10/01 05:43:23;;;;;;;;;;;14.00;82.80;;;;;;4959255;28;19981;-77
2023/10/01 05:45:52;;;;;;;;;;;14.00;82.80;;;;;;4958296;28;20024;-77
2023/10/01 05:48:19;;;;;;;;;;;14.00;82.90;;;;;;4959736;28;19997;-78
2023/10/01 05:50:47;;;;;;;;;;;14.00;82.90;;;;;;4959745;28;20064;-76
2023/10/01 05:53:14;;;;;;;;;;;13.90;82.90;;;;;;4961346;28;19997;-77
2023/10/01 05:55:43;;;;;;;;;;;13.90;82.90;;;;;;4963143;28;20012;-77
2023/10/01 05:58:21;;;;;;;;;;;13.90;82.90;;;;;;4961754;28;20186;-77
2023/10/01 06:00:56;;;;;;;;;;;13.90;83.00;;;;;;4965593;28;20024;-77
2023/10/01 06:03:24;;;;;;;;;;;13.90;83.00;;;;;;4967379;28;20031;-77
2023/10/01 06:05:57;;;;;;;;;;;13.90;83.00;;;;;;4971323;28;19981;-76
2023/10/01 06:08:25;;;;;;;;;;;13.90;83.10;;;;;;4956816;28;19997;-76
2023/10/01 06:11:09;;;;;;;;;;;13.80;83.10;;;;;;4962356;28;19985;-76
2023/10/01 06:13:38;;;;;;;;;;;13.80;83.20;;;;;;4958032;28;19984;-77
2023/10/01 06:16:11;;;;;;;;;;;13.80;83.20;;;;;;4961146;28;20005;-77
2023/10/01 06:18:41;;;;;;;;;;;13.80;83.30;;;;;;4961837;28;20123;-76
2023/10/01 06:21:10;;;;;;;;;;;13.80;84.10;;;;;;4960142;28;19985;-76
2023/10/01 06:23:49;;;;;;;;;;;13.70;83.40;;;;;;4962812;28;20004;-76
2023/10/01 06:26:16;;;;;;;;;;;13.70;83.50;;;;;;4959510;28;19988;-77
2023/10/01 06:28:43;;;;;;;;;;;13.80;83.60;;;;;;4961191;28;20429;-77
2023/10/01 06:31:10;;;;;;;;;;;13.80;83.60;;;;;;4973701;28;20552;-76
2023/10/01 06:33:38;;;;;;;;;;;13.80;83.70;;;;;;4963949;28;20434;-77
2023/10/01 06:36:19;;;;;;;;;;;13.70;83.70;;;;;;4963556;28;19996;-77
2023/10/01 06:38:48;;;;;;;;;;;13.70;83.80;;;;;;4981189;28;19999;-77
2023/10/01 06:41:16;;;;;;;;;;;13.70;83.90;;;;;;4961066;28;19988;-77
2023/10/01 06:43:49;;;;;;;;;;;13.70;84.00;;;;;;4957118;28;19985;-78
2023/10/01 06:46:17;;;;;;;;;;;13.70;84.00;;;;;;4960644;28;20821;-77
2023/10/01 06:48:43;;;;;;;;;;;13.60;84.10;;;;;;4958742;28;20004;-78
2023/10/01 06:51:12;;;;;;;;;;;13.60;84.20;;;;;;4962032;28;20177;-77
2023/10/01 06:53:47;;;;;;;;;;;13.60;84.20;;;;;;4961721;28;19981;-77
2023/10/01 06:56:17;;;;;;;;;;;13.60;84.30;;;;;;4959545;28;20091;-77
2023/10/01 06:59:01;;;;;;;;;;;13.60;84.40;;;;;;4961601;28;19997;-78
2023/10/01 07:01:35;;;;;;;;;;;13.70;84.60;;;;;;4958374;28;19997;-77
2023/10/01 07:04:01;;;;;;;;;;;13.60;84.60;;;;;;4960263;28;19985;-76
2023/10/01 07:06:28;;;;;;;;;;;13.60;84.60;;;;;;4959291;28;20499;-76
2023/10/01 07:08:55;;;;;;;;;;;13.60;84.70;;;;;;4955395;28;20100;-77
2023/10/01 07:11:23;;;;;;;;;;;13.60;84.80;;;;;;4957096;28;20419;-77
2023/10/01 07:13:52;;;;;;;;;;;13.60;84.90;;;;;;4960551;28;19992;-78
2023/10/01 07:16:35;;;;;;;;;;;13.60;84.90;;;;;;4959245;28;20742;-77
2023/10/01 07:19:02;;;;;;;;;;;13.60;85.00;;;;;;4957750;28;20039;-77
2023/10/01 07:21:29;;;;;;;;;;;13.60;85.00;;;;;;4960348;28;19985;-77
2023/10/01 07:23:58;;;;;;;;;;;13.60;85.00;;;;;;4964041;28;20066;-77
2023/10/01 07:26:26;;;;;;;;;;;13.60;85.00;;;;;;4962558;28;20605;-77
2023/10/01 07:28:55;;;;;;;;;;;13.60;85.10;;;;;;4965040;28;19996;-75
2023/10/01 07:31:24;;;;;;;;;;;13.50;85.10;;;;;;4954798;28;19993;-76
2023/10/01 07:33:52;;;;;;;;;;;13.60;85.20;;;;;;4956491;28;20048;-77
2023/10/01 07:36:19;;;;;;;;;;;13.60;85.20;;;;;;4959813;28;19993;-77
2023/10/01 07:38:52;;;;;;;;;;;13.50;85.30;;;;;;4961490;28;19997;-77
2023/10/01 07:41:20;;;;;;;;;;;13.60;85.40;;;;;;4964572;28;19977;-77
2023/10/01 07:43:49;;;;;;;;;;;13.60;85.40;;;;;;4960885;28;20441;-77
2023/10/01 07:46:18;;;;;;;;;;;13.60;85.50;;;;;;4958448;28;20453;-77
2023/10/01 07:48:48;;;;;;;;;;;13.60;85.50;;;;;;4960827;28;20629;-78
2023/10/01 07:51:26;;;;;;;;;;;13.60;85.50;;;;;;4974421;28;20470;-78
2023/10/01 07:53:53;;;;;;;;;;;13.60;85.60;;;;;;4960471;28;20030;-78
2023/10/01 07:56:22;;;;;;;;;;;13.60;85.60;;;;;;4957046;28;19985;-78
2023/10/01 07:58:56;;;;;;;;;;;13.60;85.60;;;;;;4963068;28;20059;-79
2023/10/01 08:01:42;;;;;;;;;;;13.60;85.70;;;;;;4953909;28;20108;-79
2023/10/01 08:04:34;;;;;;;;;;;13.60;85.70;;;;;;4963971;28;19985;-78
2023/10/01 08:07:05;;;;;;;;;;;13.60;85.70;;;;;;4960187;28;19999;-79
2023/10/01 08:09:33;;;;;;;;;;;13.60;85.70;;;;;;4956874;28;20077;-80
2023/10/01 08:12:05;;;;;;;;;;;13.60;85.80;;;;;;4958701;28;20465;-79
2023/10/01 08:14:33;;;;;;;;;;;13.70;85.80;;;;;;4959853;28;19981;-80
2023/10/01 08:17:00;;;;;;;;;;;13.70;85.90;;;;;;4960112;28;20004;-77
2023/10/01 08:19:41;;;;;;;;;;;13.70;85.70;;;;;;4961850;28;20031;-81
2023/10/01 08:22:13;;;;;;;;;;;13.70;85.80;;;;;;4961568;28;19977;-79
2023/10/01 08:24:39;;;;;;;;;;;13.70;85.70;;;;;;4953711;28;20054;-79
2023/10/01 08:27:12;;;;;;;;;;;13.80;85.60;;;;;;4957618;28;19977;-79
2023/10/01 08:32:23;;;;;;;;;;;13.90;85.50;;;;;;4957336;28;20027;-80
2023/10/01 08:35:01;;;;;;;;;;;13.90;85.50;;;;;;4960291;28;20033;-80
2023/10/01 08:37:31;;;;;;;;;;;13.90;86.10;;;;;;4962847;28;19997;-80
2023/10/01 08:39:57;;;;;;;;;;;14.00;85.30;;;;;;4961693;28;19989;-81
2023/10/01 08:42:28;;;;;;;;;;;14.00;85.20;;;;;;4964596;28;19973;-80
2023/10/01 08:45:03;;;;;;;;;;;14.00;85.20;;;;;;4957648;28;19978;-79
2023/10/01 08:47:35;;;;;;;;;;;14.00;85.30;;;;;;4963325;28;20004;-79
2023/10/01 08:50:19;;;;;;;;;;;14.00;85.30;;;;;;4961193;28;19981;-78
2023/10/01 08:53:01;;;;;;;;;;;14.10;85.50;;;;;;4959773;28;20083;-78
2023/10/01 08:55:35;;;;;;;;;;;14.10;85.60;;;;;;4954957;28;20520;-79
2023/10/01 08:58:13;;;;;;;;;;;14.10;85.70;;;;;;4965725;28;20493;-78
2023/10/01 09:00:48;;;;;;;;;;;14.10;85.90;;;;;;4958774;28;19992;-79
2023/10/01 09:03:26;;;;;;;;;;;14.20;86.10;;;;;;4959957;28;20643;-78
2023/10/01 09:06:01;;;;;;;;;;;14.20;85.90;;;;;;4959591;28;19981;-78
2023/10/01 09:08:31;;;;;;;;;;;14.20;85.60;;;;;;4961376;28;19992;-78
2023/10/01 09:10:59;;;;;;;;;;;14.30;85.50;;;;;;4960104;28;20058;-78
2023/10/01 09:13:30;;;;;;;;;;;14.30;85.10;;;;;;4956724;28;20726;-79
2023/10/01 09:16:10;;;;;;;;;;;14.40;84.90;;;;;;4956459;28;20001;-79
2023/10/01 09:18:38;;;;;;;;;;;14.50;84.70;;;;;;4958563;28;19997;-78
2023/10/01 09:21:06;;;;;;;;;;;14.50;84.40;;;;;;4962075;28;19988;-78
2023/10/01 09:23:54;;;;;;;;;;;14.60;84.20;;;;;;4956252;28;19980;-77
2023/10/01 09:26:37;;;;;;;;;;;14.70;84.00;;;;;;4958046;28;19982;-77
2023/10/01 09:29:13;;;;;;;;;;;14.70;83.60;;;;;;4956101;28;20077;-77
2023/10/01 09:31:54;;;;;;;;;;;14.80;83.50;;;;;;4957303;28;19997;-78
2023/10/01 09:34:31;;;;;;;;;;;14.90;83.30;;;;;;4959451;28;20011;-78
2023/10/01 09:36:59;;;;;;;;;;;15.00;83.10;;;;;;4969049;28;19993;-77
2023/10/01 09:39:36;;;;;;;;;;;15.00;82.80;;;;;;4959667;28;19982;-78
2023/10/01 09:42:19;;;;;;;;;;;15.10;82.80;;;;;;4955633;28;19976;-77
2023/10/01 09:44:47;;;;;;;;;;;15.20;82.60;;;;;;4959562;28;20413;-77
2023/10/01 09:47:15;;;;;;;;;;;15.30;82.30;;;;;;4960699;28;19997;-77
2023/10/01 09:49:47;;;;;;;;;;;15.30;82.30;;;;;;4959379;28;20027;-77
2023/10/01 09:52:26;;;;;;;;;;;15.40;82.20;;;;;;4958569;28;19981;-77
2023/10/01 09:54:57;;;;;;;;;;;15.50;82.10;;;;;;4961111;28;20074;-77
2023/10/01 09:57:24;;;;;;;;;;;15.60;81.90;;;;;;4960394;28;20004;-80
2023/10/01 09:59:52;;;;;;;;;;;15.60;81.80;;;;;;4956521;28;20306;-77
2023/10/01 10:02:27;;;;;;;;;;;15.70;81.90;;;;;;4959931;28;19997;-78
2023/10/01 10:04:54;;;;;;;;;;;15.80;82.00;;;;;;4958503;28;19988;-78
2023/10/01 10:07:24;;;;;;;;;;;15.80;81.80;;;;;;4968971;28;20084;-76
2023/10/01 10:09:54;;;;;;;;;;;15.90;82.00;;;;;;4958427;28;19988;-77
2023/10/01 10:12:33;;;;;;;;;;;16.00;81.80;;;;;;4961770;28;19981;-76
2023/10/01 10:15:00;;;;;;;;;;;16.10;81.70;;;;;;4974955;28;20081;-77
2023/10/01 10:17:38;;;;;;;;;;;16.20;81.60;;;;;;4959019;28;20001;-76
2023/10/01 10:23:13;;;;;;;;;;;16.30;81.40;;;;;;4952164;28;20860;-76
2023/10/01 10:25:40;;;;;;;;;;;16.40;81.20;;;;;;4952555;28;19982;-76
2023/10/01 10:28:09;;;;;;;;;;;16.50;81.10;;;;;;4971697;28;20006;-76
2023/10/01 10:30:40;;;;;;;;;;;16.50;80.90;;;;;;4959366;28;20001;-76
2023/10/01 10:33:39;;;;;;;;;;;16.60;80.70;;;;;;4980014;28;20011;-76
2023/10/01 10:36:27;;;;;;;;;;;16.60;80.40;;;;;;4966480;28;19981;-77
2023/10/01 10:38:55;;;;;;;;;;;16.70;80.20;;;;;;4956212;28;19997;-76
2023/10/01 10:41:25;;;;;;;;;;;16.80;80.20;;;;;;4964233;28;20397;-77
2023/10/01 10:44:07;;;;;;;;;;;16.90;80.00;;;;;;4963548;28;19976;-77
2023/10/01 10:46:47;;;;;;;;;;;17.00;80.00;;;;;;4973525;28;20062;-76
2023/10/01 10:49:15;;;;;;;;;;;17.00;79.80;;;;;;4962870;28;20359;-76
2023/10/01 10:51:48;;;;;;;;;;;17.10;79.50;;;;;;4963721;28;19977;-77
2023/10/01 10:54:29;;;;;;;;;;;17.20;79.40;;;;;;4962635;28;20385;-76
2023/10/01 10:56:57;;;;;;;;;;;17.30;79.20;;;;;;4962969;28;19985;-76
2023/10/01 10:59:25;;;;;;;;;;;17.30;79.10;;;;;;4977138;28;20080;-77
2023/10/01 11:01:56;;;;;;;;;;;17.40;78.90;;;;;;4960808;28;19997;-77
2023/10/01 11:04:30;;;;;;;;;;;17.50;78.90;;;;;;4962216;28;19981;-76
2023/10/01 11:07:02;;;;;;;;;;;17.50;78.70;;;;;;4957559;28;19981;-76
2023/10/01 11:09:32;;;;;;;;;;;17.60;78.40;;;;;;4977784;28;19982;-77
2023/10/01 11:12:04;;;;;;;;;;;17.70;79.20;;;;;;4960014;28;19997;-76
2023/10/01 11:14:31;;;;;;;;;;;17.80;78.20;;;;;;4957546;28;20008;-77
2023/10/01 11:16:57;;;;;;;;;;;17.80;78.10;;;;;;4954562;28;19997;-76
2023/10/01 11:19:25;;;;;;;;;;;17.90;77.80;;;;;;4962012;28;20477;-76
2023/10/01 11:21:56;;;;;;;;;;;17.90;77.40;;;;;;4957788;28;20024;-76
2023/10/01 11:24:25;;;;;;;;;;;18.00;77.50;;;;;;4956998;28;19982;-77
2023/10/01 11:27:14;;;;;;;;;;;18.10;77.10;;;;;;4963728;28;19977;-76
2023/10/01 11:29:41;;;;;;;;;;;18.10;77.10;;;;;;4957501;28;20510;-76
2023/10/01 11:32:10;;;;;;;;;;;18.20;76.90;;;;;;4955010;28;20491;-76
2023/10/01 11:34:45;;;;;;;;;;;18.30;76.70;;;;;;4958922;28;19965;-77
2023/10/01 11:37:18;;;;;;;;;;;18.40;76.50;;;;;;4967218;28;19975;-77
2023/10/01 11:39:52;;;;;;;;;;;18.40;76.30;;;;;;4962694;28;19984;-76
2023/10/01 11:42:35;;;;;;;;;;;18.50;76.20;;;;;;4959263;28;20031;-76
2023/10/01 11:45:12;;;;;;;;;;;18.60;76.10;;;;;;4963201;28;20104;-77
2023/10/01 11:48:04;;;;;;;;;;;18.60;75.80;;;;;;4957919;28;20330;-77
2023/10/01 11:50:32;;;;;;;;;;;18.70;75.50;;;;;;4959114;28;20068;-76
2023/10/01 11:53:04;;;;;;;;;;;18.80;75.40;;;;;;4956549;28;19992;-77
2023/10/01 11:55:33;;;;;;;;;;;18.80;75.20;;;;;;4962658;28;19994;-77
2023/10/01 11:58:01;;;;;;;;;;;18.90;75.00;;;;;;4956155;28;20446;-76
2023/10/01 12:00:52;;;;;;;;;;;19.00;75.10;;;;;;4961182;28;20001;-76
2023/10/01 12:03:19;;;;;;;;;;;19.10;74.90;;;;;;4954768;28;20054;-76
2023/10/01 12:05:47;;;;;;;;;;;19.10;74.60;;;;;;4954351;28;20067;-77
2023/10/01 12:08:18;;;;;;;;;;;19.20;74.50;;;;;;4957658;28;20011;-77
2023/10/01 12:10:45;;;;;;;;;;;19.20;74.30;;;;;;4967379;28;20042;-76
2023/10/01 12:13:13;;;;;;;;;;;19.30;73.80;;;;;;4959189;28;19992;-76
2023/10/01 12:15:51;;;;;;;;;;;19.40;73.80;;;;;;4961892;28;20375;-77
2023/10/01 12:18:18;;;;;;;;;;;19.40;73.50;;;;;;4956497;28;20390;-77
2023/10/01 12:20:50;;;;;;;;;;;19.40;73.60;;;;;;4967591;28;20086;-76
2023/10/01 12:23:19;;;;;;;;;;;19.50;73.50;;;;;;4958872;28;19982;-77
2023/10/01 12:25:47;;;;;;;;;;;19.60;73.30;;;;;;4957906;28;20020;-76
2023/10/01 12:28:18;;;;;;;;;;;19.60;72.90;;;;;;4975226;28;20000;-77
2023/10/01 12:30:45;;;;;;;;;;;19.70;73.00;;;;;;4956352;28;19999;-77
2023/10/01 12:33:11;;;;;;;;;;;19.80;72.90;;;;;;4956519;28;20287;-77
2023/10/01 12:35:39;;;;;;;;;;;19.80;72.60;;;;;;4958372;28;20522;-76
2023/10/01 12:38:05;;;;;;;;;;;19.90;72.50;;;;;;4956546;28;20460;-77
2023/10/01 12:40:34;;;;;;;;;;;19.90;72.20;;;;;;4960539;28;20034;-77
2023/10/01 12:43:01;;;;;;;;;;;20.00;72.20;;;;;;4960314;28;20578;-76
2023/10/01 12:45:30;;;;;;;;;;;20.10;72.20;;;;;;4969133;28;20359;-77
2023/10/01 12:48:07;;;;;;;;;;;20.10;71.90;;;;;;4966044;28;19997;-76
2023/10/01 12:50:34;;;;;;;;;;;20.20;71.90;;;;;;4960024;28;19977;-77
2023/10/01 12:53:19;;;;;;;;;;;20.30;71.80;;;;;;4954838;28;19989;-76
2023/10/01 12:55:52;;;;;;;;;;;20.20;71.00;;;;;;4963878;28;19992;-76
2023/10/01 12:58:29;;;;;;;;;;;20.30;71.50;;;;;;4963409;28;20004;-77
2023/10/01 13:00:57;;;;;;;;;;;20.30;71.30;;;;;;4956596;28;20007;-77
2023/10/01 13:03:24;;;;;;;;;;;20.40;71.10;;;;;;4960764;28;19981;-76
2023/10/01 13:05:51;;;;;;;;;;;20.50;71.10;;;;;;4962784;28;20553;-76
2023/10/01 13:08:28;;;;;;;;;;;20.50;70.80;;;;;;4955522;28;19989;-76
2023/10/01 13:10:57;;;;;;;;;;;20.50;70.00;;;;;;4962454;28;20459;-76
2023/10/01 13:13:29;;;;;;;;;;;20.60;70.20;;;;;;4955380;28;19988;-76
2023/10/01 13:16:01;;;;;;;;;;;20.60;69.60;;;;;;4952313;28;20008;-76
2023/10/01 13:18:29;;;;;;;;;;;20.70;70.00;;;;;;4959035;28;20011;-76
2023/10/01 13:21:06;;;;;;;;;;;20.70;69.40;;;;;;4963281;28;20034;-77
2023/10/01 13:23:41;;;;;;;;;;;20.70;70.10;;;;;;4960861;28;20033;-77
2023/10/01 13:26:14;;;;;;;;;;;20.80;70.10;;;;;;4961134;28;19987;-76
2023/10/01 13:28:46;;;;;;;;;;;20.90;69.90;;;;;;4958017;28;20003;-76
2023/10/01 13:31:35;;;;;;;;;;;20.90;69.20;;;;;;4961276;28;20029;-77
2023/10/01 13:34:21;;;;;;;;;;;21.00;69.90;;;;;;4957035;28;20151;-76
2023/10/01 13:36:51;;;;;;;;;;;21.00;68.50;;;;;;4957237;28;19985;-77
2023/10/01 13:39:25;;;;;;;;;;;21.10;69.40;;;;;;4957072;28;20005;-76
2023/10/01 14:12:08;;;;;;;;;;;21.70;67.30;;;;;;4954493;28;19987;-77
2023/10/01 14:14:35;;;;;;;;;;;21.80;68.10;;;;;;4961202;28;20034;-77
2023/10/01 14:17:13;;;;;;;;;;;21.80;68.10;;;;;;4965458;28;20005;-77
2023/10/01 14:19:42;;;;;;;;;;;21.80;67.80;;;;;;4963179;28;20023;-76
2023/10/01 14:22:19;;;;;;;;;;;21.90;67.10;;;;;;4960759;28;20539;-77
2023/10/01 14:24:46;;;;;;;;;;;21.90;66.50;;;;;;4963826;28;19987;-77
2023/10/01 14:27:24;;;;;;;;;;;21.90;67.20;;;;;;4964081;28;19998;-77
2023/10/01 14:30:00;;;;;;;;;;;22.00;67.30;;;;;;4960772;28;20390;-77
2023/10/01 14:32:34;;;;;;;;;;;22.00;66.60;;;;;;4962958;28;20031;-77
2023/10/01 14:35:14;;;;;;;;;;;22.10;67.10;;;;;;4959319;28;20062;-77
2023/10/01 14:37:42;;;;;;;;;;;22.10;67.00;;;;;;4967180;28;20060;-77
2023/10/01 14:40:21;;;;;;;;;;;22.10;67.10;;;;;;4959151;28;20131;-77
2023/10/01 14:42:48;;;;;;;;;;;22.10;67.20;;;;;;4972304;28;19984;-77
2023/10/01 14:45:15;;;;;;;;;;;22.10;67.20;;;;;;4968424;28;19985;-77
2023/10/01 14:47:42;;;;;;;;;;;22.10;66.70;;;;;;4962758;28;20020;-77
2023/10/01 14:50:14;;;;;;;;;;;22.10;66.90;;;;;;4960804;28;19985;-77
2023/10/01 14:52:45;;;;;;;;;;;22.10;67.20;;;;;;4961098;28;19984;-78
2023/10/01 14:55:22;;;;;;;;;;;22.10;67.10;;;;;;4962190;28;20000;-77
2023/10/01 14:57:51;;;;;;;;;;;22.10;67.40;;;;;;4961156;28;19997;-77
2023/10/01 15:00:18;;;;;;;;;;;22.10;67.40;;;;;;4960126;28;20004;-77
2023/10/01 15:02:45;;;;;;;;;;;22.10;67.50;;;;;;4960453;28;19992;-78
2023/10/01 15:05:14;;;;;;;;;;;22.00;67.80;;;;;;4963249;28;20016;-78
2023/10/01 15:07:40;;;;;;;;;;;22.00;67.80;;;;;;4961098;28;21831;-77
2023/10/01 15:10:08;;;;;;;;;;;22.00;68.00;;;;;;4963850;28;19984;-78
2023/10/01 15:12:34;;;;;;;;;;;22.00;68.30;;;;;;4969842;28;20704;-77
2023/10/01 15:15:18;;;;;;;;;;;21.90;68.50;;;;;;4956771;28;20410;-77
2023/10/01 15:17:45;;;;;;;;;;;21.90;68.90;;;;;;4973418;28;20005;-77